createdAt,value
2022-09-06T00:01:15.161Z,2.10
2022-09-06T00:03:46.901Z,2.60
2022-09-06T00:06:18.409Z,1.90
2022-09-06T00:08:48.680Z,2.20
2022-09-06T00:11:17.583Z,2.38
2022-09-06T00:13:44.967Z,2.50
2022-09-06T00:16:14.647Z,2.47
2022-09-06T00:18:44.633Z,2.05
2022-09-06T00:21:18.063Z,1.92
2022-09-06T00:23:44.811Z,2.00
2022-09-06T00:26:14.195Z,2.00
2022-09-06T00:28:41.186Z,2.38
2022-09-06T00:31:20.969Z,2.38
2022-09-06T00:33:53.790Z,2.00
2022-09-06T00:36:24.248Z,2.20
2022-09-06T00:38:53.984Z,2.80
2022-09-06T00:41:20.995Z,2.58
2022-09-06T00:43:47.792Z,2.33
2022-09-06T00:46:27.210Z,2.15
2022-09-06T00:49:00.926Z,2.47
2022-09-06T00:51:28.847Z,1.83
2022-09-06T00:53:55.678Z,2.00
2022-09-06T00:56:24.103Z,2.40
2022-09-06T00:58:53.598Z,2.60
2022-09-06T01:01:20.598Z,1.90
2022-09-06T01:03:47.944Z,2.08
2022-09-06T01:06:26.504Z,2.83
2022-09-06T01:09:19.309Z,1.60
2022-09-06T01:12:10.264Z,1.80
2022-09-06T01:14:49.202Z,1.50
2022-09-06T01:17:45.037Z,1.48
2022-09-06T01:20:39.136Z,1.65
2022-09-06T01:23:42.379Z,1.10
2022-09-06T01:26:45.288Z,2.00
2022-09-06T01:29:34.335Z,1.80
2022-09-06T01:34:40.397Z,2.10
2022-09-06T01:37:12.382Z,1.38
2022-09-06T01:39:41.274Z,1.30
2022-09-06T01:42:15.761Z,1.85
2022-09-06T01:44:49.901Z,1.85
2022-09-06T01:47:28.035Z,1.55
2022-09-06T01:50:12.553Z,1.45
2022-09-06T01:53:06.985Z,1.77
2022-09-06T01:55:49.098Z,1.80
2022-09-06T01:58:48.847Z,1.75
2022-09-06T02:01:15.559Z,2.03
2022-09-06T02:03:51.092Z,1.30
2022-09-06T02:06:22.445Z,1.45
2022-09-06T02:08:54.895Z,1.65
2022-09-06T02:11:24.411Z,1.73
2022-09-06T02:13:54.313Z,1.60
2022-09-06T02:16:25.979Z,1.20
2022-09-06T02:19:00.982Z,1.70
2022-09-06T02:21:30.706Z,1.58
2022-09-06T02:24:00.079Z,1.65
2022-09-06T02:26:31.065Z,1.80
2022-09-06T02:28:57.873Z,1.90
2022-09-06T02:31:31.736Z,1.30
2022-09-06T02:34:01.370Z,1.80
2022-09-06T02:36:30.258Z,1.90
2022-09-06T02:38:57.319Z,1.77
2022-09-06T02:41:24.856Z,1.90
2022-09-06T02:43:57.019Z,1.58
2022-09-06T02:48:51.633Z,1.98
2022-09-06T02:51:21.731Z,2.08
2022-09-06T02:53:48.825Z,1.77
2022-09-06T02:56:15.576Z,1.90
2022-09-06T02:58:45.006Z,1.60
2022-09-06T03:01:13.937Z,2.83
2022-09-06T03:03:43.626Z,1.70
2022-09-06T03:06:15.087Z,2.33
2022-09-06T03:08:44.324Z,1.70
2022-09-06T03:11:14.338Z,2.10
2022-09-06T03:13:46.390Z,1.80
2022-09-06T03:16:15.611Z,2.25
2022-09-06T03:21:10.297Z,1.67
2022-09-06T03:23:39.554Z,2.05
2022-09-06T03:26:09.520Z,2.22
2022-09-06T03:28:36.333Z,1.70
2022-09-06T03:31:05.816Z,1.77
2022-09-06T03:33:32.813Z,1.70
2022-09-06T03:36:05.605Z,1.60
2022-09-06T03:38:32.623Z,2.05
2022-09-06T03:40:59.578Z,1.88
2022-09-06T03:43:27.884Z,2.00
2022-09-06T03:45:57.229Z,1.88
2022-09-06T03:48:27.931Z,1.85
2022-09-06T03:50:58.767Z,1.90
2022-09-06T03:53:29.316Z,1.98
2022-09-06T03:56:00.225Z,1.92
2022-09-06T03:58:31.900Z,2.03
2022-09-06T04:03:29.286Z,1.85
2022-09-06T04:05:56.027Z,2.00
2022-09-06T04:08:27.648Z,1.95
2022-09-06T04:10:55.796Z,1.70
2022-09-06T04:13:23.537Z,1.95
2022-09-06T04:15:55.181Z,3.05
2022-09-06T04:18:25.009Z,1.92
2022-09-06T04:20:53.000Z,2.22
2022-09-06T04:23:22.963Z,2.30
2022-09-06T04:25:58.078Z,2.17
2022-09-06T04:28:26.663Z,2.50
2022-09-06T04:30:55.667Z,4.40
2022-09-06T04:33:25.922Z,2.40
2022-09-06T04:35:53.944Z,2.00
2022-09-06T04:38:28.125Z,1.88
2022-09-06T04:40:58.164Z,1.90
2022-09-06T04:43:29.424Z,1.92
2022-09-06T04:45:56.273Z,1.70
2022-09-06T04:48:25.937Z,1.83
2022-09-06T04:50:53.323Z,1.92
2022-09-06T04:53:20.097Z,1.80
2022-09-06T04:55:47.898Z,1.98
2022-09-06T04:58:14.618Z,2.33
2022-09-06T05:00:44.574Z,1.75
2022-09-06T05:03:11.465Z,2.08
2022-09-06T05:05:38.794Z,2.20
2022-09-06T05:08:08.297Z,1.75
2022-09-06T05:10:38.120Z,1.63
2022-09-06T05:13:09.789Z,1.98
2022-09-06T05:15:37.068Z,2.03
2022-09-06T05:18:05.723Z,1.90
2022-09-06T05:20:33.043Z,1.83
2022-09-06T05:23:02.006Z,2.25
2022-09-06T05:25:28.988Z,2.45
2022-09-06T05:27:55.721Z,2.50
2022-09-06T05:30:23.286Z,2.65
2022-09-06T05:32:55.387Z,2.10
2022-09-06T05:35:22.176Z,2.22
2022-09-06T05:37:51.707Z,2.33
2022-09-06T05:40:18.392Z,1.98
2022-09-06T05:42:45.117Z,1.77
2022-09-06T05:45:11.852Z,2.20
2022-09-06T05:47:38.694Z,2.00
2022-09-06T05:50:08.516Z,2.05
2022-09-06T05:52:38.223Z,2.28
2022-09-06T05:55:09.721Z,2.30
2022-09-06T05:57:39.018Z,2.22
2022-09-06T06:00:07.226Z,1.92
2022-09-06T06:02:40.833Z,2.15
2022-09-06T06:05:08.223Z,2.10
2022-09-06T06:07:37.666Z,2.30
2022-09-06T06:10:05.865Z,1.83
2022-09-06T06:12:32.605Z,1.85
2022-09-06T06:15:01.868Z,2.60
2022-09-06T06:17:28.659Z,2.20
2022-09-06T06:19:58.334Z,3.28
2022-09-06T06:22:27.437Z,3.40
2022-09-06T06:27:21.183Z,3.15
2022-09-06T06:29:50.643Z,2.13
2022-09-06T06:32:17.436Z,2.80
2022-09-06T06:34:44.241Z,3.00
2022-09-06T06:37:13.557Z,4.30
2022-09-06T06:39:42.688Z,3.28
2022-09-06T06:42:09.533Z,2.92
2022-09-06T06:44:53.435Z,2.55
2022-09-06T06:49:53.468Z,2.65
2022-09-06T06:52:21.687Z,2.33
2022-09-06T06:54:50.239Z,2.30
2022-09-06T06:57:17.589Z,1.95
2022-09-06T06:59:44.458Z,2.17
2022-09-06T07:02:12.711Z,2.20
2022-09-06T07:04:39.671Z,2.15
2022-09-06T07:12:43.003Z,2.60
2022-09-06T07:15:09.912Z,1.85
2022-09-06T07:17:36.792Z,2.33
2022-09-06T07:22:39.486Z,2.15
2022-09-06T07:25:07.148Z,1.87
2022-09-06T07:27:50.153Z,2.42
2022-09-06T07:30:22.007Z,2.83
2022-09-06T07:32:51.990Z,3.55
2022-09-06T07:35:20.536Z,3.45
2022-09-06T07:37:55.099Z,1.98
2022-09-06T07:40:21.977Z,1.80
2022-09-06T07:42:51.097Z,5.05
2022-09-06T07:47:59.898Z,5.43
2022-09-06T07:53:16.559Z,2.42
2022-09-06T07:55:46.329Z,2.25
2022-09-06T07:58:13.166Z,3.10
2022-09-06T08:00:41.352Z,2.50
2022-09-06T08:03:11.513Z,4.40
2022-09-06T08:11:21.464Z,2.00
2022-09-06T08:13:52.094Z,2.17
2022-09-06T08:16:20.183Z,3.97
2022-09-06T08:18:53.833Z,2.05
2022-09-06T08:21:23.671Z,2.00
2022-09-06T08:23:52.367Z,2.05
2022-09-06T08:26:21.084Z,2.10
2022-09-06T08:29:02.400Z,2.28
2022-09-06T08:31:33.443Z,2.42
2022-09-06T08:34:01.625Z,1.92
2022-09-06T08:36:33.547Z,2.07
2022-09-06T08:39:02.995Z,1.95
2022-09-06T08:41:53.281Z,1.90
2022-09-06T08:47:14.865Z,2.10
2022-09-06T08:50:01.464Z,2.35
2022-09-06T08:52:31.224Z,1.70
2022-09-06T08:55:16.625Z,1.83
2022-09-06T08:57:53.749Z,3.45
2022-09-06T09:00:21.230Z,2.17
2022-09-06T09:03:18.253Z,1.77
2022-09-06T09:05:49.445Z,2.47
2022-09-06T09:08:24.895Z,2.10
2022-09-06T09:10:55.337Z,2.67
2022-09-06T09:13:36.428Z,2.05
2022-09-06T09:16:06.960Z,2.53
2022-09-06T09:18:36.617Z,3.10
2022-09-06T09:21:03.947Z,1.42
2022-09-06T09:23:31.132Z,2.15
2022-09-06T09:26:05.467Z,2.40
2022-09-06T09:28:35.508Z,1.73
2022-09-06T09:31:02.546Z,2.05
2022-09-06T09:33:39.332Z,2.20
2022-09-06T09:36:14.140Z,2.85
2022-09-06T09:38:45.171Z,1.90
2022-09-06T09:41:36.067Z,2.22
2022-09-06T09:44:05.682Z,1.80
2022-09-06T09:46:39.724Z,1.80
2022-09-06T09:49:24.370Z,1.88
2022-09-06T09:52:11.225Z,1.85
2022-09-06T09:54:44.356Z,3.03
2022-09-06T09:57:18.739Z,1.85
2022-09-06T09:59:54.334Z,2.58
2022-09-06T10:02:32.105Z,2.70
2022-09-06T10:05:09.949Z,3.58
2022-09-06T10:07:58.920Z,2.78
2022-09-06T10:10:27.929Z,2.97
2022-09-06T10:13:12.822Z,2.25
2022-09-06T10:15:41.045Z,1.52
2022-09-06T10:18:35.659Z,2.40
2022-09-06T10:21:09.320Z,3.25
2022-09-06T10:24:27.884Z,1.70
2022-09-06T10:27:08.783Z,2.38
2022-09-06T10:30:11.199Z,2.03
2022-09-06T10:32:41.682Z,1.92
2022-09-06T10:35:25.797Z,1.85
2022-09-06T10:38:07.630Z,2.20
2022-09-06T10:40:39.682Z,2.00
2022-09-06T10:43:09.008Z,1.73
2022-09-06T10:45:48.621Z,2.22
2022-09-06T10:48:40.082Z,2.13
2022-09-06T10:51:12.887Z,1.92
2022-09-06T10:53:53.762Z,1.77
2022-09-06T10:56:29.740Z,1.92
2022-09-06T11:02:11.330Z,2.03
2022-09-06T11:07:31.790Z,1.60
2022-09-06T11:10:07.819Z,1.25
2022-09-06T11:12:48.780Z,1.83
2022-09-06T11:15:17.780Z,2.10
2022-09-06T11:18:09.269Z,1.75
2022-09-06T11:21:26.592Z,3.03
2022-09-06T11:24:14.181Z,2.00
2022-09-06T11:27:04.600Z,1.20
2022-09-06T11:29:32.664Z,1.77
2022-09-06T11:32:19.052Z,2.70
2022-09-06T11:34:57.130Z,1.73
2022-09-06T11:37:43.811Z,1.50
2022-09-06T11:43:01.046Z,1.50
2022-09-06T11:45:47.763Z,1.42
2022-09-06T11:48:23.504Z,1.52
2022-09-06T11:50:59.271Z,1.55
2022-09-06T11:53:50.581Z,0.95
2022-09-06T11:56:28.366Z,1.23
2022-09-06T11:59:03.631Z,1.20
2022-09-06T12:01:30.308Z,1.10
2022-09-06T12:04:05.595Z,1.55
2022-09-06T12:06:47.824Z,1.10
2022-09-06T12:09:49.369Z,1.38
2022-09-06T12:12:42.007Z,0.52
2022-09-06T12:15:30.109Z,0.70
2022-09-06T12:18:01.936Z,0.73
2022-09-06T12:20:56.684Z,1.70
2022-09-06T12:23:34.679Z,0.70
2022-09-06T12:26:43.143Z,0.43
2022-09-06T12:29:12.654Z,0.50
2022-09-06T12:32:01.679Z,1.80
2022-09-06T12:34:34.291Z,0.80
2022-09-06T12:37:11.109Z,1.30
2022-09-06T12:39:38.197Z,0.77
2022-09-06T12:42:12.002Z,0.77
2022-09-06T12:44:44.050Z,0.77
2022-09-06T12:47:28.100Z,0.60
2022-09-06T12:50:17.970Z,1.52
2022-09-06T12:52:59.486Z,0.80
2022-09-06T12:55:35.429Z,0.60
2022-09-06T12:58:06.235Z,0.60
2022-09-06T13:00:45.389Z,0.57
2022-09-06T13:03:31.572Z,0.70
2022-09-06T13:06:10.110Z,0.60
2022-09-06T13:08:45.880Z,0.60
2022-09-06T13:11:17.296Z,0.50
2022-09-06T13:14:03.959Z,0.70
2022-09-06T13:16:37.260Z,0.40
2022-09-06T13:19:29.871Z,0.60
2022-09-06T13:21:58.435Z,0.70
2022-09-06T13:24:37.155Z,0.57
2022-09-06T13:27:24.049Z,0.60
2022-09-06T13:30:02.635Z,0.40
2022-09-06T13:32:30.276Z,0.63
2022-09-06T13:34:59.331Z,0.50
2022-09-06T13:37:28.024Z,0.60
2022-09-06T13:39:54.756Z,0.40
2022-09-06T13:42:36.635Z,0.50
2022-09-06T13:45:24.021Z,0.65
2022-09-06T13:47:50.968Z,0.50
2022-09-06T13:50:17.711Z,0.55
2022-09-06T13:52:44.509Z,0.60
2022-09-06T13:55:18.337Z,0.57
2022-09-06T13:57:45.905Z,0.63
2022-09-06T14:00:17.335Z,0.70
2022-09-06T14:02:44.108Z,0.50
2022-09-06T14:05:13.568Z,0.55
2022-09-06T14:07:43.787Z,0.73
2022-09-06T14:10:15.536Z,0.85
2022-09-06T14:12:42.757Z,0.80
2022-09-06T14:15:10.190Z,0.80
2022-09-06T14:17:37.373Z,0.57
2022-09-06T14:20:05.053Z,1.37
2022-09-06T14:22:34.516Z,0.77
2022-09-06T14:25:01.765Z,1.00
2022-09-06T14:27:32.780Z,0.80
2022-09-06T14:29:59.594Z,2.22
2022-09-06T14:32:29.252Z,0.63
2022-09-06T14:34:55.978Z,0.70
2022-09-06T14:37:22.884Z,1.80
2022-09-06T14:39:50.206Z,0.82
2022-09-06T14:42:17.102Z,1.23
2022-09-06T14:44:44.386Z,1.00
2022-09-06T14:47:12.564Z,0.90
2022-09-06T14:49:41.698Z,0.70
2022-09-06T14:52:09.021Z,1.15
2022-09-06T14:54:35.827Z,0.90
2022-09-06T14:57:07.641Z,0.88
2022-09-06T14:59:34.995Z,0.95
2022-09-06T15:02:02.223Z,0.70
2022-09-06T15:04:29.942Z,0.90
2022-09-06T15:07:02.352Z,0.70
2022-09-06T15:09:29.303Z,1.45
2022-09-06T15:11:58.746Z,0.93
2022-09-06T15:14:36.237Z,0.70
2022-09-06T15:17:08.870Z,0.98
2022-09-06T15:19:37.017Z,1.17
2022-09-06T15:22:06.768Z,1.00
2022-09-06T15:24:34.535Z,1.00
2022-09-06T15:27:03.835Z,1.00
2022-09-06T15:29:31.265Z,1.00
2022-09-06T15:31:58.457Z,1.20
2022-09-06T15:34:26.248Z,0.95
2022-09-06T15:36:53.532Z,1.00
2022-09-06T15:39:20.399Z,0.93
2022-09-06T15:41:47.894Z,0.90
2022-09-06T15:44:17.213Z,1.00
2022-09-06T15:46:47.502Z,1.08
2022-09-06T15:49:20.334Z,1.23
2022-09-06T15:51:49.299Z,0.80
2022-09-06T15:54:38.823Z,1.10
2022-09-06T15:57:05.883Z,0.82
2022-09-06T15:59:32.868Z,1.30
2022-09-06T16:02:05.744Z,1.38
2022-09-06T16:04:32.908Z,0.75
2022-09-06T16:07:04.937Z,2.88
2022-09-06T16:09:32.118Z,0.90
2022-09-06T16:12:03.381Z,1.70
2022-09-06T16:14:30.091Z,1.05
2022-09-06T16:16:57.536Z,1.20
2022-09-06T16:19:27.897Z,1.23
2022-09-06T16:21:58.724Z,1.35
2022-09-06T16:24:30.263Z,1.48
2022-09-06T16:26:57.399Z,1.38
2022-09-06T16:29:27.932Z,1.88
2022-09-06T16:31:59.846Z,1.25
2022-09-06T16:34:32.077Z,1.60
2022-09-06T16:37:01.561Z,1.67
2022-09-06T16:39:30.826Z,1.33
2022-09-06T16:41:57.941Z,1.48
2022-09-06T16:44:24.871Z,1.55
2022-09-06T16:46:53.857Z,1.48
2022-09-06T16:49:20.814Z,1.35
2022-09-06T16:51:49.792Z,1.98
2022-09-06T16:54:26.103Z,1.50
2022-09-06T16:56:52.968Z,1.58
2022-09-06T16:59:21.699Z,2.30
2022-09-06T17:01:50.563Z,1.60
2022-09-06T17:04:19.174Z,1.35
2022-09-06T17:06:47.866Z,1.98
2022-09-06T17:09:19.248Z,1.63
2022-09-06T17:11:48.766Z,1.25
2022-09-06T17:14:21.905Z,1.33
2022-09-06T17:17:07.400Z,1.67
2022-09-06T17:19:40.672Z,1.25
2022-09-06T17:22:13.071Z,1.80
2022-09-06T17:24:40.756Z,1.48
2022-09-06T17:27:13.604Z,1.23
2022-09-06T17:29:43.092Z,1.70
2022-09-06T17:32:10.971Z,2.00
2022-09-06T17:34:51.005Z,1.83
2022-09-06T17:37:25.037Z,2.08
2022-09-06T17:40:17.906Z,1.77
2022-09-06T17:42:52.848Z,1.80
2022-09-06T17:45:26.988Z,1.77
2022-09-06T17:48:02.573Z,1.73
2022-09-06T17:50:36.742Z,2.33
2022-09-06T17:53:12.740Z,2.00
2022-09-06T17:55:40.926Z,1.63
2022-09-06T17:58:08.488Z,2.17
2022-09-06T18:00:41.259Z,2.28
2022-09-06T18:03:08.912Z,2.00
2022-09-06T18:05:43.013Z,2.00
2022-09-06T18:08:10.293Z,1.95
2022-09-06T18:10:39.479Z,2.60
2022-09-06T18:13:06.525Z,2.05
2022-09-06T18:15:42.905Z,2.60
2022-09-06T18:18:12.317Z,2.20
2022-09-06T18:20:40.076Z,2.85
2022-09-06T18:23:06.945Z,2.30
2022-09-06T18:25:36.101Z,2.67
2022-09-06T18:28:06.233Z,2.85
2022-09-06T18:30:35.703Z,3.03
2022-09-06T18:33:06.271Z,2.38
2022-09-06T18:35:33.077Z,2.83
2022-09-06T18:40:36.614Z,2.78
2022-09-06T18:43:03.973Z,1.90
2022-09-06T18:45:34.052Z,2.45
2022-09-06T18:48:00.943Z,2.60
2022-09-06T18:50:34.372Z,2.50
2022-09-06T18:53:01.166Z,2.63
2022-09-06T18:55:27.742Z,3.05
2022-09-06T18:57:56.393Z,3.28
2022-09-06T19:00:25.712Z,3.25
2022-09-06T19:02:57.581Z,2.78
2022-09-06T19:05:24.431Z,3.15
2022-09-06T19:07:51.449Z,2.70
2022-09-06T19:10:20.481Z,3.10
2022-09-06T19:15:20.609Z,2.50
2022-09-06T19:17:50.912Z,3.00
2022-09-06T19:20:21.009Z,2.65
2022-09-06T19:22:58.646Z,2.72
2022-09-06T19:25:27.830Z,2.70
2022-09-06T19:27:57.163Z,2.20
2022-09-06T19:30:24.079Z,2.40
2022-09-06T19:32:53.379Z,2.35
2022-09-06T19:35:20.315Z,2.05
2022-09-06T19:37:49.399Z,2.40
2022-09-06T19:43:03.065Z,2.10
2022-09-06T19:45:32.800Z,2.20
2022-09-06T19:48:01.985Z,2.35
2022-09-06T19:50:31.465Z,1.98
2022-09-06T19:55:31.145Z,2.22
2022-09-06T19:58:03.412Z,2.20
2022-09-06T20:00:35.501Z,1.92
2022-09-06T20:03:02.587Z,2.20
2022-09-06T20:05:31.579Z,2.42
2022-09-06T20:07:58.260Z,2.83
2022-09-06T20:10:25.714Z,2.60
2022-09-06T20:12:53.421Z,2.40
2022-09-06T20:15:20.408Z,3.63
2022-09-06T20:17:49.299Z,2.85
2022-09-06T20:20:19.321Z,2.65
2022-09-06T20:22:50.900Z,2.88
2022-09-06T20:25:17.864Z,2.50
2022-09-06T20:27:44.813Z,3.60
2022-09-06T20:30:12.204Z,2.80
2022-09-06T20:32:39.174Z,3.38
2022-09-06T20:35:07.018Z,2.90
2022-09-06T20:37:33.759Z,3.33
2022-09-06T20:40:01.514Z,2.70
2022-09-06T20:42:30.958Z,2.60
2022-09-06T20:44:58.220Z,3.13
2022-09-06T20:47:24.900Z,4.93
2022-09-06T20:49:51.630Z,3.60
2022-09-06T20:52:23.211Z,2.78
2022-09-06T20:54:50.112Z,3.00
2022-09-06T20:57:19.463Z,2.92
2022-09-06T20:59:49.332Z,3.42
2022-09-06T21:02:16.769Z,2.90
2022-09-06T21:04:43.787Z,3.00
2022-09-06T21:07:12.814Z,2.65
2022-09-06T21:09:42.556Z,3.65
2022-09-06T21:12:10.840Z,3.87
2022-09-06T21:14:37.665Z,3.67
2022-09-06T21:17:05.389Z,3.50
2022-09-06T21:19:32.173Z,3.60
2022-09-06T21:21:59.255Z,4.18
2022-09-06T21:24:28.088Z,3.92
2022-09-06T21:26:54.913Z,3.30
2022-09-06T21:29:21.707Z,3.95
2022-09-06T21:31:48.490Z,3.55
2022-09-06T21:34:17.124Z,3.65
2022-09-06T21:36:44.452Z,3.25
2022-09-06T21:39:13.939Z,3.20
2022-09-06T21:41:42.270Z,3.75
2022-09-06T21:44:09.346Z,3.92
2022-09-06T21:46:39.345Z,2.83
2022-09-06T21:49:13.855Z,2.60
2022-09-06T21:51:41.257Z,3.25
2022-09-06T21:54:10.980Z,3.47
2022-09-06T21:56:38.917Z,3.50
2022-09-06T21:59:11.963Z,3.15
2022-09-06T22:01:39.731Z,2.90
2022-09-06T22:04:10.488Z,3.95
2022-09-06T22:06:37.798Z,3.28
2022-09-06T22:09:11.375Z,3.20
2022-09-06T22:11:59.339Z,3.60
2022-09-06T22:14:26.355Z,3.67
2022-09-06T22:16:53.515Z,4.25
2022-09-06T22:19:20.244Z,3.45
2022-09-06T22:21:47.136Z,3.42
2022-09-06T22:24:17.476Z,3.70
2022-09-06T22:26:46.352Z,3.65
2022-09-06T22:29:16.769Z,3.55
2022-09-06T22:31:46.962Z,3.80
2022-09-06T22:34:15.020Z,3.28
2022-09-06T22:36:41.982Z,3.70
2022-09-06T22:39:09.569Z,3.38
2022-09-06T22:41:36.631Z,3.38
2022-09-06T22:44:04.232Z,3.80
2022-09-06T22:46:31.386Z,3.70
2022-09-06T22:48:58.881Z,3.25
2022-09-06T22:51:28.673Z,3.80
2022-09-06T22:53:55.652Z,4.10
2022-09-06T22:56:24.649Z,3.60
2022-09-06T22:58:51.437Z,4.30
2022-09-06T23:01:18.475Z,3.63
2022-09-06T23:03:46.910Z,4.20
2022-09-06T23:06:16.844Z,3.53
2022-09-06T23:08:44.356Z,3.55
2022-09-06T23:11:15.958Z,4.35
2022-09-06T23:13:47.249Z,3.92
2022-09-06T23:16:20.971Z,4.40
2022-09-06T23:18:50.459Z,4.43
2022-09-06T23:21:19.502Z,3.70
2022-09-06T23:23:51.013Z,3.60
2022-09-06T23:26:21.059Z,3.53
2022-09-06T23:28:51.704Z,3.50
2022-09-06T23:31:18.695Z,3.92
2022-09-06T23:33:45.600Z,3.67
2022-09-06T23:36:13.690Z,3.92
2022-09-06T23:38:43.887Z,3.10
2022-09-06T23:41:11.539Z,4.53
2022-09-06T23:43:40.990Z,3.90
2022-09-06T23:46:08.543Z,3.70
2022-09-06T23:48:36.009Z,4.70
2022-09-06T23:51:03.366Z,4.45
2022-09-06T23:53:30.295Z,3.90
2022-09-06T23:55:57.210Z,4.00
2022-09-06T23:58:24.372Z,3.80
